Time;durP1;ratioP1;P1;durP2;ratioP2;P2;SDS_P1;SDS_P2;PMS_P1;PMS_P2;Temp;Humidity;BMP_temperature;BMP_pressure;BME280_temperature;BME280_humidity;BME280_pressure;Samples;Min_cycle;Max_cycle;Signal;HPM_P1;HPM_P2
2024/01/16 00:05:09;;;;;;;;;;;-3.20;77.00;;;;;;4183131;28;19959;-79
2024/01/16 00:07:28;;;;;;;;;;;-3.20;76.40;;;;;;4186204;28;19928;-79
2024/01/16 00:09:52;;;;;;;;;;;-3.20;77.10;;;;;;4189466;28;19919;-79
2024/01/16 00:12:13;;;;;;;;;;;-3.10;76.40;;;;;;4185501;28;19943;-79
2024/01/16 00:14:36;;;;;;;;;;;-3.10;76.40;;;;;;4187401;28;19917;-79
2024/01/16 00:16:57;;;;;;;;;;;-3.10;76.40;;;;;;4186807;28;19916;-78
2024/01/16 00:19:17;;;;;;;;;;;-3.10;76.40;;;;;;4188812;28;19920;-78
2024/01/16 00:21:39;;;;;;;;;;;-3.10;76.40;;;;;;4187355;28;19921;-78
2024/01/16 00:24:00;;;;;;;;;;;-3.10;76.40;;;;;;4187274;28;20023;-78
2024/01/16 00:26:21;;;;;;;;;;;-3.00;76.50;;;;;;4183426;28;19925;-78
2024/01/16 00:28:42;;;;;;;;;;;-3.00;76.50;;;;;;4186877;28;19974;-78
2024/01/16 00:31:07;;;;;;;;;;;-3.00;77.20;;;;;;4187839;28;20325;-78
2024/01/16 00:33:28;;;;;;;;;;;-3.00;76.50;;;;;;4187495;28;19932;-79
2024/01/16 00:35:48;;;;;;;;;;;-3.00;76.40;;;;;;4185154;28;20449;-78
2024/01/16 00:38:09;;;;;;;;;;;-3.00;76.40;;;;;;4186337;28;19913;-78
2024/01/16 00:40:30;;;;;;;;;;;-3.00;76.40;;;;;;4188168;28;20011;-78
2024/01/16 00:42:51;;;;;;;;;;;-3.00;76.40;;;;;;4188782;28;19920;-78
2024/01/16 00:45:11;;;;;;;;;;;-3.00;76.40;;;;;;4186670;28;19975;-78
2024/01/16 00:47:31;;;;;;;;;;;-2.90;76.50;;;;;;4186970;28;19975;-78
2024/01/16 00:49:50;;;;;;;;;;;-2.90;77.20;;;;;;4186554;28;20097;-78
2024/01/16 00:52:10;;;;;;;;;;;-2.90;76.60;;;;;;4186319;28;20321;-78
2024/01/16 00:54:29;;;;;;;;;;;-2.90;76.60;;;;;;4189408;28;19926;-78
2024/01/16 00:56:48;;;;;;;;;;;-2.90;76.50;;;;;;4187223;28;19919;-78
2024/01/16 00:59:07;;;;;;;;;;;-2.90;77.30;;;;;;4189801;28;19924;-78
2024/01/16 01:01:27;;;;;;;;;;;-2.90;77.30;;;;;;4188030;28;19920;-78
2024/01/16 01:03:46;;;;;;;;;;;-2.90;76.50;;;;;;4188218;28;19933;-79
2024/01/16 01:06:05;;;;;;;;;;;-2.90;76.60;;;;;;4184291;28;19943;-78
2024/01/16 01:08:24;;;;;;;;;;;-2.90;76.50;;;;;;4184114;28;19996;-79
2024/01/16 01:10:43;;;;;;;;;;;-2.90;76.50;;;;;;4185521;28;20002;-78
2024/01/16 01:13:03;;;;;;;;;;;-2.90;77.20;;;;;;4190302;28;19958;-78
2024/01/16 01:15:22;;;;;;;;;;;-2.90;76.50;;;;;;4186751;28;19932;-78
2024/01/16 01:17:41;;;;;;;;;;;-2.90;76.40;;;;;;4189642;28;20409;-77
2024/01/16 01:20:01;;;;;;;;;;;-2.90;76.40;;;;;;4186886;28;20478;-78
2024/01/16 01:22:20;;;;;;;;;;;-2.90;76.40;;;;;;4185687;28;19947;-78
2024/01/16 01:24:39;;;;;;;;;;;-2.90;76.40;;;;;;4183938;28;19997;-78
2024/01/16 01:26:58;;;;;;;;;;;-2.90;76.30;;;;;;4177740;28;19927;-78
2024/01/16 01:29:18;;;;;;;;;;;-2.90;76.30;;;;;;4183486;28;19935;-78
2024/01/16 01:31:37;;;;;;;;;;;-2.90;77.10;;;;;;4188148;28;19922;-78
2024/01/16 01:33:56;;;;;;;;;;;-2.90;76.30;;;;;;4189181;28;19931;-78
2024/01/16 01:36:15;;;;;;;;;;;-2.90;76.30;;;;;;4185660;28;19927;-78
2024/01/16 01:38:35;;;;;;;;;;;-2.90;76.40;;;;;;4188475;28;20294;-78
2024/01/16 01:40:54;;;;;;;;;;;-2.90;76.50;;;;;;4185603;28;19923;-78
2024/01/16 01:43:19;;;;;;;;;;;-2.90;76.40;;;;;;4185757;28;20337;-77
2024/01/16 01:45:38;;;;;;;;;;;-2.90;76.50;;;;;;4186556;28;20606;-78
2024/01/16 01:47:59;;;;;;;;;;;-2.90;76.60;;;;;;4187248;28;19951;-78
2024/01/16 01:50:18;;;;;;;;;;;-2.90;76.60;;;;;;4186271;28;19923;-78
2024/01/16 01:52:40;;;;;;;;;;;-2.90;76.60;;;;;;4184796;28;19997;-78
2024/01/16 01:55:01;;;;;;;;;;;-2.90;76.60;;;;;;4183480;28;19932;-78
2024/01/16 01:57:20;;;;;;;;;;;-2.80;76.70;;;;;;4184539;28;19923;-78
2024/01/16 01:59:40;;;;;;;;;;;-2.80;76.70;;;;;;4184755;28;19970;-78
2024/01/16 02:01:59;;;;;;;;;;;-2.80;76.60;;;;;;4180063;28;19928;-78
2024/01/16 02:04:19;;;;;;;;;;;-2.80;76.60;;;;;;4186434;28;19923;-78
2024/01/16 02:06:38;;;;;;;;;;;-2.80;76.60;;;;;;4185229;28;20486;-76
2024/01/16 02:08:58;;;;;;;;;;;-2.80;76.60;;;;;;4183112;28;20000;-78
2024/01/16 02:11:17;;;;;;;;;;;-2.80;76.60;;;;;;4187153;28;20460;-78
2024/01/16 02:13:36;;;;;;;;;;;-2.80;76.60;;;;;;4183443;28;19978;-78
2024/01/16 02:15:56;;;;;;;;;;;-2.80;76.60;;;;;;4186859;28;20011;-78
2024/01/16 02:18:16;;;;;;;;;;;-2.80;76.60;;;;;;4187489;28;19992;-78
2024/01/16 02:20:35;;;;;;;;;;;-2.80;76.60;;;;;;4186082;28;19934;-78
2024/01/16 02:22:55;;;;;;;;;;;-2.80;76.60;;;;;;4184250;28;19979;-78
2024/01/16 02:25:14;;;;;;;;;;;-2.80;76.60;;;;;;4184309;28;19928;-78
2024/01/16 02:27:33;;;;;;;;;;;-2.80;76.60;;;;;;4185165;28;20694;-78
2024/01/16 02:29:53;;;;;;;;;;;-2.90;76.60;;;;;;4184879;28;20138;-78
2024/01/16 02:32:12;;;;;;;;;;;-2.90;77.20;;;;;;4183982;28;19966;-78
2024/01/16 02:34:31;;;;;;;;;;;-2.90;76.40;;;;;;4184608;28;19923;-78
2024/01/16 02:36:51;;;;;;;;;;;-2.90;76.40;;;;;;4184575;28;19967;-77
2024/01/16 02:39:11;;;;;;;;;;;-2.90;76.40;;;;;;4181721;28;20460;-78
2024/01/16 02:41:31;;;;;;;;;;;-3.00;76.30;;;;;;4184318;28;20424;-78
2024/01/16 02:43:50;;;;;;;;;;;-3.00;76.20;;;;;;4185133;28;19994;-78
2024/01/16 02:46:09;;;;;;;;;;;-3.00;77.00;;;;;;4183875;28;20554;-78
2024/01/16 02:48:28;;;;;;;;;;;-3.00;77.00;;;;;;4185229;28;19995;-77
2024/01/16 02:50:48;;;;;;;;;;;-3.10;76.20;;;;;;4184455;28;19963;-80
2024/01/16 02:53:07;;;;;;;;;;;-3.10;76.20;;;;;;4185183;28;19927;-78
2024/01/16 02:55:26;;;;;;;;;;;-3.10;76.20;;;;;;4187891;28;19962;-79
2024/01/16 02:57:45;;;;;;;;;;;-3.20;76.10;;;;;;4186501;28;20003;-78
2024/01/16 03:00:05;;;;;;;;;;;-3.20;76.10;;;;;;4187581;28;19959;-78
2024/01/16 03:02:25;;;;;;;;;;;-3.20;76.10;;;;;;4187089;28;20015;-78
2024/01/16 03:04:44;;;;;;;;;;;-3.30;76.00;;;;;;4180199;28;20066;-78
2024/01/16 03:07:03;;;;;;;;;;;-3.30;76.00;;;;;;4185807;28;19927;-78
2024/01/16 03:09:23;;;;;;;;;;;-3.30;76.00;;;;;;4186688;28;20035;-78
2024/01/16 03:11:42;;;;;;;;;;;-3.40;75.90;;;;;;4197086;28;19939;-80
2024/01/16 03:14:01;;;;;;;;;;;-3.40;75.90;;;;;;4185591;28;19967;-78
2024/01/16 03:16:20;;;;;;;;;;;-3.40;76.00;;;;;;4181839;28;19923;-78
2024/01/16 03:18:39;;;;;;;;;;;-3.40;76.00;;;;;;4189714;28;19985;-78
2024/01/16 03:20:59;;;;;;;;;;;-3.50;76.00;;;;;;4185737;28;20055;-78
2024/01/16 03:23:18;;;;;;;;;;;-3.50;76.10;;;;;;4187252;28;20010;-78
2024/01/16 03:25:38;;;;;;;;;;;-3.50;76.10;;;;;;4186111;28;19920;-78
2024/01/16 03:27:57;;;;;;;;;;;-3.50;76.10;;;;;;4186796;28;19978;-78
2024/01/16 03:30:17;;;;;;;;;;;-3.60;76.00;;;;;;4189163;28;20309;-80
2024/01/16 03:32:36;;;;;;;;;;;-3.60;76.10;;;;;;4185854;28;20949;-79
2024/01/16 03:34:55;;;;;;;;;;;-3.60;76.20;;;;;;4189623;28;20326;-81
2024/01/16 03:37:15;;;;;;;;;;;-3.60;76.20;;;;;;4191137;28;19923;-80
2024/01/16 03:39:34;;;;;;;;;;;-3.60;76.30;;;;;;4190255;28;19927;-78
2024/01/16 03:41:53;;;;;;;;;;;-3.60;76.40;;;;;;4191665;28;20325;-78
2024/01/16 03:44:12;;;;;;;;;;;-3.60;76.50;;;;;;4190650;28;19992;-81
2024/01/16 03:46:32;;;;;;;;;;;-3.60;76.60;;;;;;4189180;28;19924;-80
2024/01/16 03:48:51;;;;;;;;;;;-3.50;76.70;;;;;;4189546;28;19965;-78
2024/01/16 03:51:10;;;;;;;;;;;-3.50;76.80;;;;;;4187225;28;19951;-78
2024/01/16 03:53:29;;;;;;;;;;;-3.50;76.80;;;;;;4189017;28;19926;-78
2024/01/16 03:55:49;;;;;;;;;;;-3.50;77.70;;;;;;4185468;28;19927;-78
2024/01/16 03:58:08;;;;;;;;;;;-3.50;77.00;;;;;;4189118;28;20406;-78
2024/01/16 04:00:28;;;;;;;;;;;-3.40;77.10;;;;;;4189550;28;20630;-80
2024/01/16 04:02:47;;;;;;;;;;;-3.30;77.20;;;;;;4189881;28;19923;-78
2024/01/16 04:05:06;;;;;;;;;;;-3.40;77.20;;;;;;4187814;28;20536;-78
2024/01/16 04:07:26;;;;;;;;;;;-3.40;77.20;;;;;;4188702;28;19928;-77
2024/01/16 04:09:45;;;;;;;;;;;-3.40;77.90;;;;;;4190036;28;19927;-79
2024/01/16 04:12:05;;;;;;;;;;;-3.40;77.10;;;;;;4190897;28;20027;-79
2024/01/16 04:14:24;;;;;;;;;;;-3.30;77.10;;;;;;4187791;28;20386;-78
2024/01/16 04:16:43;;;;;;;;;;;-3.30;77.10;;;;;;4188502;28;19950;-79
2024/01/16 04:19:03;;;;;;;;;;;-3.30;77.90;;;;;;4191390;28;19923;-79
2024/01/16 04:21:22;;;;;;;;;;;-3.30;77.90;;;;;;4208366;28;19916;-77
2024/01/16 04:23:42;;;;;;;;;;;-3.30;77.10;;;;;;4207390;28;19927;-78
2024/01/16 04:26:01;;;;;;;;;;;-3.30;77.10;;;;;;4207859;28;19932;-78
2024/01/16 04:28:20;;;;;;;;;;;-3.20;77.20;;;;;;4189910;28;19963;-79
2024/01/16 04:30:39;;;;;;;;;;;-3.30;77.10;;;;;;4188367;28;19918;-78
2024/01/16 04:32:59;;;;;;;;;;;-3.20;77.20;;;;;;4185569;28;19935;-78
2024/01/16 04:35:18;;;;;;;;;;;-3.20;77.20;;;;;;4185989;28;19931;-78
2024/01/16 04:37:37;;;;;;;;;;;-3.20;77.20;;;;;;4187174;28;19985;-78
2024/01/16 04:39:58;;;;;;;;;;;-3.20;77.10;;;;;;4187617;28;20012;-77
2024/01/16 04:42:17;;;;;;;;;;;-3.20;77.80;;;;;;4188054;28;19927;-80
2024/01/16 04:44:36;;;;;;;;;;;-3.20;77.10;;;;;;4185342;28;19924;-78
2024/01/16 04:46:55;;;;;;;;;;;-3.20;77.10;;;;;;4180382;28;19927;-78
2024/01/16 04:49:14;;;;;;;;;;;-3.10;77.20;;;;;;4183039;28;19923;-78
2024/01/16 04:51:34;;;;;;;;;;;-3.20;77.10;;;;;;4186205;28;19920;-77
2024/01/16 04:53:53;;;;;;;;;;;-3.10;77.20;;;;;;4187871;28;19928;-78
2024/01/16 04:56:12;;;;;;;;;;;-3.10;77.30;;;;;;4186329;28;19942;-77
2024/01/16 04:58:33;;;;;;;;;;;-3.10;77.30;;;;;;4187560;28;20400;-77
2024/01/16 05:00:52;;;;;;;;;;;-3.10;77.40;;;;;;4187280;28;19946;-77
2024/01/16 05:03:11;;;;;;;;;;;-3.00;78.10;;;;;;4187929;28;19928;-78
2024/01/16 05:05:30;;;;;;;;;;;-3.00;77.50;;;;;;4184706;28;19931;-77
2024/01/16 05:07:51;;;;;;;;;;;-3.00;77.40;;;;;;4184636;28;19923;-78
2024/01/16 05:10:12;;;;;;;;;;;-3.00;77.60;;;;;;4187729;28;20049;-78
2024/01/16 05:12:31;;;;;;;;;;;-3.00;77.40;;;;;;4185606;28;19965;-78
2024/01/16 05:14:50;;;;;;;;;;;-3.00;77.40;;;;;;4183683;28;20505;-78
2024/01/16 05:17:10;;;;;;;;;;;-2.90;77.50;;;;;;4182639;28;19927;-78
2024/01/16 05:19:29;;;;;;;;;;;-2.90;77.30;;;;;;4186595;28;20015;-78
2024/01/16 05:21:48;;;;;;;;;;;-2.90;77.30;;;;;;4185190;28;19955;-78
2024/01/16 05:24:08;;;;;;;;;;;-2.90;77.30;;;;;;4183349;28;19962;-77
2024/01/16 05:26:27;;;;;;;;;;;-2.90;77.20;;;;;;4186410;28;19974;-78
2024/01/16 05:28:46;;;;;;;;;;;-2.90;77.30;;;;;;4184188;28;19946;-78
2024/01/16 05:31:07;;;;;;;;;;;-2.90;78.00;;;;;;4184413;28;19955;-78
2024/01/16 05:33:26;;;;;;;;;;;-2.90;77.30;;;;;;4185400;28;20032;-78
2024/01/16 05:35:45;;;;;;;;;;;-2.80;78.10;;;;;;4181967;28;19957;-78
2024/01/16 05:38:05;;;;;;;;;;;-2.80;77.40;;;;;;4182564;28;20778;-78
2024/01/16 05:40:24;;;;;;;;;;;-2.80;77.40;;;;;;4183163;28;19978;-79
2024/01/16 05:42:43;;;;;;;;;;;-2.80;77.40;;;;;;4183392;28;20011;-78
2024/01/16 05:45:02;;;;;;;;;;;-2.80;78.10;;;;;;4185857;28;20321;-79
2024/01/16 05:47:24;;;;;;;;;;;-2.70;77.50;;;;;;4187464;28;19928;-78
2024/01/16 05:49:43;;;;;;;;;;;-2.70;77.50;;;;;;4187188;28;19927;-78
2024/01/16 05:52:02;;;;;;;;;;;-2.70;77.50;;;;;;4184645;28;20012;-78
2024/01/16 05:54:21;;;;;;;;;;;-2.70;77.40;;;;;;4184432;28;19995;-78
2024/01/16 05:56:42;;;;;;;;;;;-2.70;77.40;;;;;;4182477;28;20270;-77
2024/01/16 05:59:01;;;;;;;;;;;-2.70;77.40;;;;;;4187639;28;20328;-78
2024/01/16 06:01:20;;;;;;;;;;;-2.60;77.50;;;;;;4186066;28;19927;-79
2024/01/16 06:03:40;;;;;;;;;;;-2.60;77.50;;;;;;4185358;28;19935;-80
2024/01/16 06:05:59;;;;;;;;;;;-2.60;77.50;;;;;;4186096;28;20016;-79
2024/01/16 06:08:19;;;;;;;;;;;-2.60;77.50;;;;;;4187957;28;20396;-79
2024/01/16 06:10:38;;;;;;;;;;;-2.60;77.50;;;;;;4187294;28;19954;-79
2024/01/16 06:12:57;;;;;;;;;;;-2.60;77.50;;;;;;4184960;28;20336;-79
2024/01/16 06:15:16;;;;;;;;;;;-2.60;77.60;;;;;;4178292;28;19986;-79
2024/01/16 06:17:36;;;;;;;;;;;-2.60;77.50;;;;;;4188040;28;20003;-80
2024/01/16 06:19:55;;;;;;;;;;;-2.50;77.60;;;;;;4188788;28;19924;-80
2024/01/16 06:22:14;;;;;;;;;;;-2.50;77.60;;;;;;4191654;28;19924;-81
2024/01/16 06:24:36;;;;;;;;;;;-2.50;77.60;;;;;;4201518;28;19923;-79
2024/01/16 06:26:55;;;;;;;;;;;-2.50;77.60;;;;;;4190474;28;19925;-80
2024/01/16 06:29:15;;;;;;;;;;;-2.50;77.60;;;;;;4191969;28;19942;-79
2024/01/16 06:31:34;;;;;;;;;;;-2.40;78.40;;;;;;4189164;28;19924;-80
2024/01/16 06:33:53;;;;;;;;;;;-2.40;77.70;;;;;;4188864;28;19924;-79
2024/01/16 06:36:13;;;;;;;;;;;-2.40;77.70;;;;;;4189629;28;19963;-80
2024/01/16 06:38:32;;;;;;;;;;;-2.40;77.70;;;;;;4189083;28;20492;-79
2024/01/16 06:40:52;;;;;;;;;;;-2.40;77.70;;;;;;4188379;28;20050;-80
2024/01/16 06:43:14;;;;;;;;;;;-2.40;77.60;;;;;;4187195;28;19966;-79
2024/01/16 06:45:34;;;;;;;;;;;-2.30;77.60;;;;;;4190954;28;20020;-79
2024/01/16 06:47:53;;;;;;;;;;;-2.30;77.60;;;;;;4192515;28;19970;-80
2024/01/16 06:50:12;;;;;;;;;;;-2.30;77.60;;;;;;4189604;28;20263;-79
2024/01/16 06:52:31;;;;;;;;;;;-2.30;77.60;;;;;;4191087;28;19990;-80
2024/01/16 06:54:51;;;;;;;;;;;-2.30;77.70;;;;;;4197848;28;19935;-79
2024/01/16 06:57:10;;;;;;;;;;;-2.30;78.50;;;;;;4195174;28;19924;-79
2024/01/16 06:59:30;;;;;;;;;;;-2.20;77.80;;;;;;4194566;28;19970;-79
2024/01/16 07:01:49;;;;;;;;;;;-2.20;77.80;;;;;;4189995;28;19922;-80
2024/01/16 07:04:08;;;;;;;;;;;-2.20;77.70;;;;;;4192058;28;19927;-79
2024/01/16 07:06:27;;;;;;;;;;;-2.20;77.80;;;;;;4193289;28;19939;-79
2024/01/16 07:08:47;;;;;;;;;;;-2.20;77.70;;;;;;4192176;28;19927;-79
2024/01/16 07:11:08;;;;;;;;;;;-2.20;77.60;;;;;;4193279;28;19937;-80
2024/01/16 07:13:27;;;;;;;;;;;-2.20;77.70;;;;;;4193895;28;20056;-78
2024/01/16 07:15:46;;;;;;;;;;;-2.20;77.80;;;;;;4192765;28;19927;-81
2024/01/16 07:18:06;;;;;;;;;;;-2.20;77.90;;;;;;4195496;28;19945;-80
2024/01/16 07:20:25;;;;;;;;;;;-2.20;77.70;;;;;;4192978;28;20639;-80
2024/01/16 07:22:45;;;;;;;;;;;-2.20;77.80;;;;;;4193795;28;19928;-80
2024/01/16 07:25:04;;;;;;;;;;;-2.20;77.80;;;;;;4189858;28;19996;-79
2024/01/16 07:27:23;;;;;;;;;;;-2.20;77.80;;;;;;4190102;28;19924;-80
2024/01/16 07:29:42;;;;;;;;;;;-2.20;77.70;;;;;;4192428;28;19923;-79
2024/01/16 07:32:02;;;;;;;;;;;-2.20;77.70;;;;;;4194149;28;19919;-79
2024/01/16 07:34:21;;;;;;;;;;;-2.20;78.50;;;;;;4189594;28;20027;-79
2024/01/16 07:36:40;;;;;;;;;;;-2.20;77.80;;;;;;4190220;28;20070;-80
2024/01/16 07:39:00;;;;;;;;;;;-2.10;77.80;;;;;;4191461;28;19971;-79
2024/01/16 07:41:19;;;;;;;;;;;-2.10;77.80;;;;;;4191050;28;19979;-79
2024/01/16 07:43:39;;;;;;;;;;;-2.10;78.50;;;;;;4189535;28;19920;-78
2024/01/16 07:45:59;;;;;;;;;;;-2.10;77.80;;;;;;4187053;28;19949;-79
2024/01/16 07:48:18;;;;;;;;;;;-2.10;77.80;;;;;;4190420;28;20467;-80
2024/01/16 07:50:37;;;;;;;;;;;-2.10;77.80;;;;;;4191891;28;19924;-79
2024/01/16 07:52:57;;;;;;;;;;;-2.10;77.80;;;;;;4192351;28;19961;-79
2024/01/16 07:55:18;;;;;;;;;;;-2.10;77.90;;;;;;4191192;28;19931;-80
2024/01/16 07:57:37;;;;;;;;;;;-2.10;77.90;;;;;;4194683;28;19924;-79
2024/01/16 07:59:56;;;;;;;;;;;-2.10;77.90;;;;;;4191928;28;19968;-78
2024/01/16 08:02:15;;;;;;;;;;;-2.10;77.90;;;;;;4190185;28;20244;-79
2024/01/16 08:04:35;;;;;;;;;;;-2.10;78.70;;;;;;4192987;28;19935;-79
2024/01/16 08:06:54;;;;;;;;;;;-2.00;78.10;;;;;;4191674;28;19931;-80
2024/01/16 08:09:14;;;;;;;;;;;-2.00;78.10;;;;;;4192866;28;20475;-79
2024/01/16 08:11:36;;;;;;;;;;;-2.00;78.10;;;;;;4192477;28;19928;-80
2024/01/16 08:13:55;;;;;;;;;;;-2.00;78.20;;;;;;4193001;28;19947;-80
2024/01/16 08:16:14;;;;;;;;;;;-1.90;79.00;;;;;;4191443;28;19935;-79
2024/01/16 08:18:34;;;;;;;;;;;-1.90;78.30;;;;;;4194096;28;20640;-80
2024/01/16 08:20:53;;;;;;;;;;;-1.90;78.40;;;;;;4193781;28;19943;-80
2024/01/16 08:23:13;;;;;;;;;;;-1.90;78.40;;;;;;4191948;28;20002;-79
2024/01/16 08:25:32;;;;;;;;;;;-1.90;78.80;;;;;;4186896;28;19959;-80
2024/01/16 08:27:51;;;;;;;;;;;-1.90;78.90;;;;;;4195747;28;19965;-79
2024/01/16 08:30:13;;;;;;;;;;;-1.80;79.00;;;;;;4192991;28;19920;-79
2024/01/16 08:32:33;;;;;;;;;;;-1.80;79.00;;;;;;4193040;28;19932;-79
2024/01/16 08:34:53;;;;;;;;;;;-1.80;79.10;;;;;;4194403;28;20373;-80
2024/01/16 08:37:09;;;;;;;;;;;-1.80;79.00;;;;;;4191407;28;19935;-79
2024/01/16 08:39:32;;;;;;;;;;;-1.80;79.70;;;;;;4208956;28;19923;-78
2024/01/16 08:41:52;;;;;;;;;;;-1.80;78.80;;;;;;4193187;28;19946;-80
2024/01/16 08:44:11;;;;;;;;;;;-1.80;78.80;;;;;;4193911;28;19927;-79
2024/01/16 08:46:31;;;;;;;;;;;-1.70;79.60;;;;;;4191165;28;20458;-80
2024/01/16 08:48:50;;;;;;;;;;;-1.70;79.00;;;;;;4193667;28;19919;-79
2024/01/16 08:51:14;;;;;;;;;;;-1.70;79.00;;;;;;4193026;28;19924;-80
2024/01/16 08:53:34;;;;;;;;;;;-1.70;79.00;;;;;;4193680;28;19927;-80
2024/01/16 08:55:53;;;;;;;;;;;-1.60;79.10;;;;;;4191629;28;19987;-80
2024/01/16 08:58:12;;;;;;;;;;;-1.60;79.10;;;;;;4193921;28;19966;-80
2024/01/16 09:00:33;;;;;;;;;;;-1.50;79.20;;;;;;4193786;28;20067;-80
2024/01/16 09:02:52;;;;;;;;;;;-1.50;79.20;;;;;;4194341;28;19957;-80
2024/01/16 09:05:13;;;;;;;;;;;-1.40;79.70;;;;;;4192337;28;19930;-80
2024/01/16 09:07:32;;;;;;;;;;;-1.40;79.30;;;;;;4192155;28;20468;-81
2024/01/16 09:09:51;;;;;;;;;;;-1.40;79.30;;;;;;4194026;28;19954;-80
2024/01/16 09:12:10;;;;;;;;;;;-1.30;79.30;;;;;;4193725;28;20444;-80
2024/01/16 09:14:30;;;;;;;;;;;-1.30;79.30;;;;;;4190055;28;19983;-80
2024/01/16 09:16:49;;;;;;;;;;;-1.20;79.30;;;;;;4193996;28;19947;-80
2024/01/16 09:19:09;;;;;;;;;;;-1.20;79.30;;;;;;4191057;28;20439;-79
2024/01/16 09:21:28;;;;;;;;;;;-1.20;79.30;;;;;;4193548;28;20374;-79
2024/01/16 09:23:47;;;;;;;;;;;-1.10;79.40;;;;;;4192704;28;19962;-80
2024/01/16 09:26:07;;;;;;;;;;;-1.10;80.10;;;;;;4193799;28;19975;-80
2024/01/16 09:28:28;;;;;;;;;;;-1.00;79.40;;;;;;4192317;28;20007;-80
2024/01/16 09:30:47;;;;;;;;;;;-1.00;79.40;;;;;;4193058;28;19999;-80
2024/01/16 09:33:07;;;;;;;;;;;-1.00;79.40;;;;;;4193506;28;21153;-79
2024/01/16 09:35:26;;;;;;;;;;;-0.90;79.50;;;;;;4192153;28;19947;-80
2024/01/16 09:37:45;;;;;;;;;;;-0.90;79.30;;;;;;4193428;28;19923;-80
2024/01/16 09:40:05;;;;;;;;;;;-0.80;79.40;;;;;;4195179;28;19954;-80
2024/01/16 09:42:24;;;;;;;;;;;-0.80;79.40;;;;;;4195455;28;19996;-80
2024/01/16 09:44:44;;;;;;;;;;;-0.80;79.40;;;;;;4191817;28;20404;-80
2024/01/16 09:47:04;;;;;;;;;;;-0.80;79.40;;;;;;4194736;28;19928;-80
2024/01/16 09:49:23;;;;;;;;;;;-0.70;79.40;;;;;;4194870;28;19928;-80
2024/01/16 09:51:43;;;;;;;;;;;-0.70;79.40;;;;;;4195421;28;19927;-80
2024/01/16 09:54:08;;;;;;;;;;;-0.70;79.50;;;;;;4191758;28;20321;-81
2024/01/16 09:56:29;;;;;;;;;;;-0.60;79.50;;;;;;4206067;28;20029;-80
2024/01/16 09:58:49;;;;;;;;;;;-0.60;79.50;;;;;;4206957;28;20637;-80
2024/01/16 10:01:09;;;;;;;;;;;-0.50;79.60;;;;;;4204121;28;20007;-80
2024/01/16 10:03:30;;;;;;;;;;;-0.50;79.60;;;;;;4193261;28;19923;-80
2024/01/16 10:05:49;;;;;;;;;;;-0.50;79.70;;;;;;4188914;28;19982;-80
2024/01/16 10:08:08;;;;;;;;;;;-0.40;79.80;;;;;;4191214;28;19981;-80
2024/01/16 10:10:28;;;;;;;;;;;-0.40;79.70;;;;;;4188626;28;19963;-80
2024/01/16 10:12:49;;;;;;;;;;;-0.40;79.70;;;;;;4192189;28;19931;-81
2024/01/16 10:15:09;;;;;;;;;;;-0.30;79.70;;;;;;4187517;28;20459;-80
2024/01/16 10:17:39;;;;;;;;;;;-0.30;79.60;;;;;;4186466;28;19924;-79
2024/01/16 10:20:02;;;;;;;;;;;-0.30;79.50;;;;;;4189628;28;20014;-81
2024/01/16 10:22:22;;;;;;;;;;;-0.30;79.50;;;;;;4192422;28;19927;-79
2024/01/16 10:24:41;;;;;;;;;;;-0.30;79.40;;;;;;4190827;28;19927;-80
2024/01/16 10:27:02;;;;;;;;;;;-0.20;79.50;;;;;;4192515;28;20001;-80
2024/01/16 10:29:21;;;;;;;;;;;-0.20;79.60;;;;;;4190120;28;19927;-80
2024/01/16 10:31:41;;;;;;;;;;;-0.20;79.60;;;;;;4195570;28;19939;-80
2024/01/16 10:34:00;;;;;;;;;;;-0.20;79.60;;;;;;4196689;28;19927;-80
2024/01/16 10:36:20;;;;;;;;;;;-0.10;79.70;;;;;;4193901;28;19931;-80
2024/01/16 10:38:40;;;;;;;;;;;-0.10;79.70;;;;;;4197024;28;20001;-79
2024/01/16 10:41:06;;;;;;;;;;;-0.10;79.70;;;;;;4194854;28;20011;-80
2024/01/16 10:43:25;;;;;;;;;;;0.00;79.70;;;;;;4194725;28;19924;-80
2024/01/16 10:45:44;;;;;;;;;;;0.00;79.80;;;;;;4200392;28;19927;-80
2024/01/16 10:48:04;;;;;;;;;;;0.10;79.80;;;;;;4199035;28;19942;-81
2024/01/16 10:50:23;;;;;;;;;;;0.10;79.80;;;;;;4195828;28;19927;-80
2024/01/16 10:52:54;;;;;;;;;;;0.10;79.70;;;;;;4195774;28;20018;-81
2024/01/16 10:55:19;;;;;;;;;;;0.20;80.40;;;;;;4193169;28;20301;-80
2024/01/16 10:57:40;;;;;;;;;;;0.20;79.70;;;;;;4208106;28;19958;-81
2024/01/16 11:00:04;;;;;;;;;;;0.20;79.10;;;;;;4194919;28;19923;-80
2024/01/16 11:02:24;;;;;;;;;;;0.20;78.90;;;;;;4195958;28;19958;-81
2024/01/16 11:04:43;;;;;;;;;;;0.20;78.90;;;;;;4192857;28;19927;-80
2024/01/16 11:07:04;;;;;;;;;;;0.20;78.50;;;;;;4193754;28;20003;-81
2024/01/16 11:09:24;;;;;;;;;;;0.20;78.30;;;;;;4192694;28;19927;-80
2024/01/16 11:11:46;;;;;;;;;;;0.20;78.90;;;;;;4191374;28;20909;-80
2024/01/16 11:14:06;;;;;;;;;;;0.20;78.20;;;;;;4189298;28;19930;-81
2024/01/16 11:16:25;;;;;;;;;;;0.20;78.30;;;;;;4189705;28;20020;-79
2024/01/16 11:18:45;;;;;;;;;;;0.20;79.00;;;;;;4191777;28;19923;-80
2024/01/16 11:21:06;;;;;;;;;;;0.20;78.20;;;;;;4203710;28;19927;-81
2024/01/16 11:23:26;;;;;;;;;;;0.20;78.00;;;;;;4193338;28;19971;-80
2024/01/16 11:25:45;;;;;;;;;;;0.20;78.10;;;;;;4189991;28;19934;-81
2024/01/16 11:28:11;;;;;;;;;;;0.20;78.30;;;;;;4190913;28;22442;-80
2024/01/16 11:30:34;;;;;;;;;;;0.20;78.80;;;;;;4189739;28;19999;-79
2024/01/16 11:32:53;;;;;;;;;;;0.20;78.70;;;;;;4188674;28;19923;-81
2024/01/16 11:35:12;;;;;;;;;;;0.20;78.70;;;;;;4189171;28;19927;-81
2024/01/16 11:37:33;;;;;;;;;;;0.30;78.70;;;;;;4190866;28;19927;-81
2024/01/16 11:40:12;;;;;;;;;;;0.30;79.00;;;;;;4190407;28;19919;-81
2024/01/16 11:42:31;;;;;;;;;;;0.30;79.00;;;;;;4193431;28;20416;-80
2024/01/16 11:44:50;;;;;;;;;;;0.50;79.30;;;;;;4193832;28;20010;-81
2024/01/16 11:47:16;;;;;;;;;;;0.40;79.80;;;;;;4192898;28;19923;-80
2024/01/16 11:49:36;;;;;;;;;;;0.40;78.90;;;;;;4191720;28;20015;-81
2024/01/16 11:51:55;;;;;;;;;;;0.40;78.90;;;;;;4201999;28;19927;-80
2024/01/16 11:54:14;;;;;;;;;;;0.40;78.90;;;;;;4190569;28;19978;-80
2024/01/16 11:57:01;;;;;;;;;;;0.50;79.00;;;;;;4185832;28;19948;-81
2024/01/16 11:59:41;;;;;;;;;;;0.50;79.20;;;;;;4190967;28;20068;-81
2024/01/16 12:02:02;;;;;;;;;;;0.50;79.20;;;;;;4188038;28;20002;-80
2024/01/16 12:04:22;;;;;;;;;;;0.50;79.10;;;;;;4185036;28;19970;-81
2024/01/16 12:06:41;;;;;;;;;;;0.60;79.20;;;;;;4187057;28;19920;-79
2024/01/16 12:09:19;;;;;;;;;;;0.60;79.20;;;;;;4186961;28;19963;-80
2024/01/16 12:11:39;;;;;;;;;;;0.60;78.90;;;;;;4192007;28;20003;-79
2024/01/16 12:14:03;;;;;;;;;;;0.60;79.00;;;;;;4187357;28;19927;-79
2024/01/16 12:16:22;;;;;;;;;;;0.60;78.40;;;;;;4187420;28;19924;-80
2024/01/16 12:18:41;;;;;;;;;;;0.60;78.30;;;;;;4190734;28;19931;-80
2024/01/16 12:21:08;;;;;;;;;;;0.60;79.10;;;;;;4191273;28;19949;-80
2024/01/16 12:23:27;;;;;;;;;;;0.60;78.30;;;;;;4187038;28;19943;-80
2024/01/16 12:25:46;;;;;;;;;;;0.60;78.40;;;;;;4189514;28;19939;-79
2024/01/16 12:28:06;;;;;;;;;;;0.60;78.50;;;;;;4190136;28;20413;-79
2024/01/16 12:30:28;;;;;;;;;;;0.60;78.40;;;;;;4200430;28;19969;-80
2024/01/16 12:32:47;;;;;;;;;;;0.60;78.50;;;;;;4187989;28;19961;-79
2024/01/16 12:35:06;;;;;;;;;;;0.60;78.60;;;;;;4189533;28;19955;-79
2024/01/16 12:37:26;;;;;;;;;;;0.60;78.60;;;;;;4189106;28;19987;-80
2024/01/16 12:39:45;;;;;;;;;;;0.70;78.60;;;;;;4188642;28;20480;-80
2024/01/16 12:42:05;;;;;;;;;;;0.70;78.60;;;;;;4201186;28;19995;-79
2024/01/16 12:44:28;;;;;;;;;;;0.70;78.50;;;;;;4187471;28;19958;-80
2024/01/16 12:46:53;;;;;;;;;;;0.70;78.50;;;;;;4186059;28;20433;-81
2024/01/16 12:49:13;;;;;;;;;;;0.70;78.40;;;;;;4185064;28;20409;-80
2024/01/16 12:51:32;;;;;;;;;;;0.70;78.30;;;;;;4188515;28;19919;-80
2024/01/16 12:53:51;;;;;;;;;;;0.70;78.20;;;;;;4189774;28;19985;-80
2024/01/16 12:56:11;;;;;;;;;;;0.70;78.20;;;;;;4187944;28;19919;-80
2024/01/16 12:58:35;;;;;;;;;;;0.70;78.20;;;;;;4186678;28;19919;-80
2024/01/16 13:00:55;;;;;;;;;;;0.70;78.10;;;;;;4184051;28;19925;-80
2024/01/16 13:03:16;;;;;;;;;;;0.70;78.20;;;;;;4188559;28;19998;-80
2024/01/16 13:05:35;;;;;;;;;;;0.60;78.20;;;;;;4186584;28;19927;-80
2024/01/16 13:08:04;;;;;;;;;;;0.60;78.30;;;;;;4188466;28;20307;-81
2024/01/16 13:10:23;;;;;;;;;;;0.60;78.20;;;;;;4188471;28;20124;-80
2024/01/16 13:12:42;;;;;;;;;;;0.60;78.80;;;;;;4187733;28;19935;-80
2024/01/16 13:15:05;;;;;;;;;;;0.60;78.80;;;;;;4189021;28;19931;-80
2024/01/16 13:17:24;;;;;;;;;;;0.70;78.10;;;;;;4189966;28;19978;-82
2024/01/16 13:19:44;;;;;;;;;;;0.70;78.10;;;;;;4191783;28;20314;-80
2024/01/16 13:22:04;;;;;;;;;;;0.60;78.90;;;;;;4185823;28;19928;-80
2024/01/16 13:24:23;;;;;;;;;;;0.60;78.10;;;;;;4189048;28;20487;-79
2024/01/16 13:26:43;;;;;;;;;;;0.60;78.90;;;;;;4187434;28;19935;-80
2024/01/16 13:29:03;;;;;;;;;;;0.60;78.10;;;;;;4190144;28;20395;-80
2024/01/16 13:31:22;;;;;;;;;;;0.60;78.10;;;;;;4188083;28;19927;-80
2024/01/16 13:33:43;;;;;;;;;;;0.60;78.10;;;;;;4185295;28;19922;-80
2024/01/16 13:36:04;;;;;;;;;;;0.60;78.10;;;;;;4187118;28;19928;-79
2024/01/16 13:38:23;;;;;;;;;;;0.60;78.10;;;;;;4187312;28;19969;-79
2024/01/16 13:40:43;;;;;;;;;;;0.60;78.00;;;;;;4186938;28;20022;-80